Portage Canal (45023)

Conditions for Thursday

Daily
Weekly
Monthly
Marine Data Graph

Current Weather/Wave Observations

Air Temperature: 62° F
Humidity: 87
Wind direction (W Dir): (Calm)
Wind Speed (W Spd): 0.0 kts (0.0 mph)
Wind Gust (W Spd): 3.9 kts (4.5 mph)
Dominant Wave Height (DWH): 0.66 ft
Dominant Wave Range (DWR): exactly 0.7 ft
Atmospheric Pressure (AP): 29.98 in

Updated: 7:19 PM EDT on September 19, 2019

Marine & Boating Location Search

Enter a coastal zip code for marine weather.

Current Wave Detail Observations

Water Depth: 82 ft
Wave Height: 0.75 ft
Spectral Peak Period:
Average Wave Period:
Sampling Interval:
Wave Record:

Updated: 8:00 PM EDT on September 19, 2019

General Information

Location: 47.27 -88.607
Buoy Type: Moored Buoy
Owned by: Michigan Technological University
Windspeed: Measured by obtained from anemometer
Sea Surface: Measured by Intake

Weather and Wave Data

Time Temp Humidity Wind Dominant Wave Pressure
  Air
(°F)
Water
(°F)
  Dir Speed
(kts)
Speed
(mph)
Period
(sec)
Height
(ft)
Range
(ft)
Atmo.
(in)
Tend.
(in)
20:09 72 57 65 WSW 9.7 11.2 0.66 exactly 0.7 29.83 -
20:19 73 57 65 WSW 9.7 11.2 0.66 exactly 0.7 29.83 -
20:39 73 57 65 SW 11.7 13.4 0.66 exactly 0.7 29.83 -
21:09 73 57 65 SSW 13.6 15.7 0.66 exactly 0.7 29.83 -
21:19 72 57 68 WSW 11.7 13.4 0.66 exactly 0.7 29.83 -
21:39 74 57 64 SSW 11.7 13.4 0.66 exactly 0.7 29.83 -
21:49 73 57 67 SW 13.6 15.7 0.66 exactly 0.7 29.83 -
21:59 73 57 67 WSW 13.6 15.7 0.66 exactly 0.7 29.83 -
22:19 72 57 67 WSW 9.7 11.2 0.66 exactly 0.7 29.83 -
22:29 74 57 62 WSW 17.5 20.1 2 0.98 exactly 1.0 29.83 -
22:39 73 57 65 WSW 17.5 20.1 2 0.98 exactly 1.0 29.83 -
22:59 72 57 67 SW 11.7 13.4 2 0.98 exactly 1.0 29.83 -
23:09 73 57 65 SW 13.6 15.7 2 1.31 exactly 1.3 29.83 -
23:29 71 57 67 WSW 11.7 13.4 3 1.31 exactly 1.3 29.83 -
23:39 71 57 69 WSW 11.7 13.4 3 1.31 exactly 1.3 29.83 -
23:49 72 57 68 WSW 15.6 17.9 3 1.31 exactly 1.3 29.80 -
23:59 71 57 72 WSW 17.5 20.1 3 1.31 exactly 1.3 29.80 -
00:09 73 57 66 West 15.6 17.9 3 1.31 exactly 1.3 29.83 -
00:19 71 57 69 WSW 11.7 13.4 3 1.31 exactly 1.3 29.83 -
00:29 71 57 74 West 17.5 20.1 3 1.31 exactly 1.3 29.83 -
00:39 72 57 70 West 15.6 17.9 3 1.31 exactly 1.3 29.83 -
00:49 71 57 71 West 17.5 20.1 3 1.31 exactly 1.3 29.83 -
00:59 72 57 68 West 13.6 15.7 3 1.31 exactly 1.3 29.83 -
01:29 70 57 72 SSW 13.6 15.7 3 1.31 exactly 1.3 29.83 -
01:49 69 56 73 SW 15.6 17.9 3 1.31 exactly 1.3 29.83 -
01:59 68 56 74 SW 15.6 17.9 3 1.31 exactly 1.3 29.83 -
02:19 66 56 78 West 13.6 15.7 3 1.64 exactly 1.6 29.83 -
02:29 65 56 81 West 13.6 15.7 3 1.64 exactly 1.6 29.83 -
02:49 64 56 82 WNW 9.7 11.2 15 1.64 exactly 1.6 29.83 -
03:09 63 56 87 WNW 9.7 11.2 3 1.31 exactly 1.3 29.83 -
03:29 63 56 86 NW 11.7 13.4 3 1.64 exactly 1.6 29.86 -
03:59 62 56 89 NW 9.7 11.2 3 1.64 exactly 1.6 29.86 -
04:09 62 56 90 SSW 9.7 11.2 3 1.64 exactly 1.6 29.86 -
04:19 62 56 87 SSW 7.8 8.9 3 1.64 exactly 1.6 29.86 -
04:29 62 56 87 SW 7.8 8.9 3 1.64 exactly 1.6 29.86 -
04:59 62 56 87 West 7.8 8.9 3 1.31 exactly 1.3 29.86 -
05:19 62 56 87 West 7.8 8.9 3 1.31 exactly 1.3 29.86 -
05:29 62 56 88 WNW 7.8 8.9 3 0.98 exactly 1.0 29.86 -
05:49 61 56 89 WNW 5.8 6.7 3 1.31 exactly 1.3 29.89 -
06:29 65 56 79 WNW 7.8 8.9 3 0.98 exactly 1.0 29.89 -
06:39 63 56 84 WNW 3.9 4.5 3 0.98 exactly 1.0 29.89 -
06:49 65 56 85 West 5.8 6.7 3 0.98 exactly 1.0 29.89 -
07:19 64 56 87 South 7.8 8.9 3 0.98 exactly 1.0 29.89 -
07:29 63 56 88 WNW 5.8 6.7 3 0.98 exactly 1.0 29.89 -
07:39 63 56 84 WNW 5.8 6.7 3 0.98 exactly 1.0 29.89 -
07:49 63 56 85 WNW 5.8 6.7 3 0.98 exactly 1.0 29.92 -
07:59 64 56 82 WNW 5.8 6.7 3 0.98 exactly 1.0 29.89 -
08:19 62 56 84 SSE 3.9 4.5 4 1.31 exactly 1.3 29.92 -
08:49 63 56 81 South 7.8 8.9 4 0.98 exactly 1.0 29.92 -
09:09 64 56 78 SSW 7.8 8.9 4 0.98 exactly 1.0 29.92 -
09:19 64 56 78 SSW 7.8 8.9 4 0.98 exactly 1.0 29.92 -
09:29 64 56 79 WSW 9.7 11.2 4 0.98 exactly 1.0 29.92 -
09:49 64 56 77 WSW 9.7 11.2 4 0.98 exactly 1.0 29.92 -
10:09 63 56 81 NNW 9.7 11.2 4 0.98 exactly 1.0 29.92 -
10:19 63 56 80 NNW 9.7 11.2 4 0.98 exactly 1.0 29.95 -
10:29 63 56 80 ENE 9.7 11.2 3 0.98 exactly 1.0 29.95 -
10:39 63 56 81 ENE 11.7 13.4 3 0.98 exactly 1.0 29.95 -
10:49 63 56 81 NW 11.7 13.4 3 0.98 exactly 1.0 29.95 -
10:59 63 56 83 NW 9.7 11.2 3 0.98 exactly 1.0 29.95 -
11:59 62 56 84 WSW 9.7 11.2 4 0.98 exactly 1.0 29.95 -
12:09 62 56 86 SW 9.7 11.2 4 0.98 exactly 1.0 29.95 -
12:29 62 56 85 West 9.7 11.2 4 0.98 exactly 1.0 29.95 -
12:39 62 56 85 West 7.8 8.9 4 0.98 exactly 1.0 29.95 -
12:59 62 56 86 West 9.7 11.2 0.66 exactly 0.7 29.95 -
13:19 61 56 88 WNW 7.8 8.9 0.66 exactly 0.7 29.95 -
13:49 60 57 90 West 5.8 6.7 0.66 exactly 0.7 29.98 -
13:59 61 57 87 WNW 7.8 8.9 0.66 exactly 0.7 29.98 -
14:09 61 57 87 WNW 7.8 8.9 0.66 exactly 0.7 29.98 -
14:19 61 57 87 NW 7.8 8.9 0.66 exactly 0.7 29.95 -
14:29 61 57 86 NW 3.9 4.5 0.66 exactly 0.7 29.95 -
14:39 61 57 85 WNW 3.9 4.5 0.66 exactly 0.7 29.95 -
14:49 60 57 90 West 3.9 4.5 0.66 exactly 0.7 29.95 -
15:09 61 57 86 WNW 3.9 4.5 0.66 exactly 0.7 29.98 -
15:19 62 57 84 NW 3.9 4.5 0.66 exactly 0.7 29.98 -
15:29 62 57 84 NNW 3.9 4.5 0.66 exactly 0.7 29.98 -
15:49 62 57 84 WNW 3.9 4.5 0.66 exactly 0.7 29.98 -
15:59 63 57 81 WNW 3.9 4.5 0.66 exactly 0.7 29.98 -
16:09 63 57 82 WNW 3.9 4.5 3 0.98 exactly 1.0 29.98 -
16:29 61 57 86 - 0.0 0.0 3 0.98 exactly 1.0 29.98 -
16:39 62 57 87 SW 1.9 2.2 0.66 exactly 0.7 29.98 -
16:49 62 57 87 WSW 1.9 2.2 0.66 exactly 0.7 29.98 -
17:49 62 57 86 - 0.0 0.0 0.66 exactly 0.7 29.95 -
18:09 62 57 87 NNW 1.9 2.2 3 0.98 exactly 1.0 29.95 -
18:19 62 57 87 North 1.9 2.2 3 0.98 exactly 1.0 29.95 -
18:29 63 57 81 - 0.0 0.0 3 0.98 exactly 1.0 29.98 -
18:39 61 57 88 SSW 1.9 2.2 3 0.98 exactly 1.0 29.98 -
19:19 62 57 87 - 0.0 0.0 0.66 exactly 0.7 29.98 -

Detailed Wave Spectra

Time Water Depth Wave Height Spectral Peak Period Average Wave Period Sampling Interval Wave Record
20:00 82 ft 0.85 ft 3.8 sec
22:00 82 ft 0.95 ft 1.8 sec
00:00 82 ft 1.41 ft 3.2 sec
01:00 82 ft 1.48 ft 3.1 sec
02:00 82 ft 1.51 ft 3.5 sec
03:00 82 ft 1.51 ft 3.3 sec
04:00 82 ft 1.51 ft 3.3 sec
05:00 82 ft 1.31 ft 3.4 sec
06:00 82 ft 1.08 ft 3.1 sec
07:00 82 ft 1.12 ft 3.1 sec
08:00 82 ft 1.02 ft 3.4 sec
09:00 82 ft 1.12 ft 3.8 sec
10:00 82 ft 0.95 ft 3.9 sec
11:00 82 ft 1.02 ft 3.9 sec
13:00 82 ft 0.85 ft 3.6 sec
14:00 82 ft 0.75 ft
15:00 82 ft 0.72 ft
16:00 82 ft 0.75 ft
17:00 82 ft 0.82 ft 3.4 sec
18:00 82 ft 0.89 ft 3.2 sec
19:00 82 ft 0.79 ft
20:00 82 ft 0.75 ft